aviador You're here:

KMNI Decoded Metar

MANNING in SC, USA
Report Time2018-05-28 09:35:00
UTC Time2018-05-28 09:45:08
Flight Rules ifr IFR
Wind070° at 05 kt
W.Decomp.*RWY 02: 2.8 kt HW 4.1 kt RCW
W.Rank070° ranks 29
Current wind is above 070° avg. (4.8)
Visibility9999 m
Phenomena:Drizzle
Clouds:Overcast 005 Hf
Ceiling500 ft
Temp20°C (ISA +5)
Dew Point20°C (100% RH)
QNH1012 hPa
Density Alt1,056 ft
Elevation105 ft
Report Wrong Elevation
Raw Report
METAR KMNI 280935Z AUTO 07005KT 7SM DZ OVC005 20/20 A2989 RMK AO2 LTG
DSNT S=

Extra information for KMNI:More info

Metar Taf Metar & Taf Last 4 Metars F.Rules Stats Wind Profile Meteogram Temp Stats Airport Information Weather charts Add Link Nearby VenuesMetar ALERT Operation Metar Decoded Social comments

AIRNAV info for KMNI